KRYY/RYY METAR and TAF weather

Enter ICAO airport designator
Station Type Date Time Source
KRYY METAR 2018/12/12 06:48 UTC NOAA

KRYY 120648Z AUTO 00000KT 10SM CLR M03/M04 A3024 RMK AO2 SLP964 T10331044 FZRANO


Station Type Date Time Source
KRYY Decoded METAR 2018/12/12 06:48 UTC NOAA

Marietta, Cobb County-McCollum Field Airport, GA, United States (KRYY) 34-00-47N 084-35-55W
Dec 12, 2018 - 01:48 AM EST / 2018.12.12 0648 UTC
Wind: Calm:0
Visibility: 10 mile(s):0
Sky conditions: clear
Temperature: 26.1 F (-3.3 C)
Dew Point: 24.1 F (-4.4 C)
Relative Humidity: 92%
Pressure (altimeter): 30.24 in. Hg (1024 hPa)
ob: KRYY 120648Z AUTO 00000KT 10SM CLR M03/M04 A3024 RMK AO2 SLP964 T10331044 FZRANO
cycle: 7

Station Type Date Time Source
KRYY TAF 2018/12/12 06:28 UTC NOAA

TAF KRYY 120526Z 1206/1306 00000KT P6SM FEW250
FM121500 25006KT P6SM BKN250
FM130000 20003KT P6SM BKN180


Example: see airport list